Time;durP1;ratioP1;P1;durP2;ratioP2;P2;SDS_P1;SDS_P2;PMS_P1;PMS_P2;Temp;Humidity;BMP_temperature;BMP_pressure;BME280_temperature;BME280_humidity;BME280_pressure;Samples;Min_cycle;Max_cycle;Signal;HPM_P1;HPM_P2
2023/05/20 00:01:45;;;;;;;8.40;4.85;;;12.20;77.50;;;;;;5015021;28;20030;-73
2023/05/20 00:04:11;;;;;;;9.48;5.80;;;12.20;77.30;;;;;;5014760;28;20022;-73
2023/05/20 00:06:36;;;;;;;6.45;5.18;;;12.10;77.40;;;;;;5014604;28;20092;-73
2023/05/20 00:09:02;;;;;;;8.90;5.25;;;12.10;77.50;;;;;;5014888;28;20084;-74
2023/05/20 00:11:28;;;;;;;8.02;4.80;;;12.10;77.80;;;;;;5014816;28;20028;-73
2023/05/20 00:13:53;;;;;;;7.28;5.10;;;12.10;78.00;;;;;;5014924;28;20033;-73
2023/05/20 00:16:19;;;;;;;8.30;5.18;;;12.10;77.90;;;;;;5014736;28;20105;-73
2023/05/20 00:18:44;;;;;;;7.55;4.50;;;12.10;77.70;;;;;;5014823;28;20052;-73
2023/05/20 00:21:10;;;;;;;8.32;5.32;;;12.10;77.80;;;;;;5014611;28;20058;-73
2023/05/20 00:23:35;;;;;;;7.90;4.90;;;12.10;78.00;;;;;;5013382;28;20167;-73
2023/05/20 00:26:01;;;;;;;8.10;5.15;;;12.20;78.00;;;;;;5014635;28;20033;-73
2023/05/20 00:28:27;;;;;;;7.65;4.78;;;12.10;78.10;;;;;;5014546;28;20383;-73
2023/05/20 00:30:53;;;;;;;8.23;4.90;;;12.10;78.20;;;;;;5014525;28;20041;-72
2023/05/20 00:33:19;;;;;;;8.32;5.10;;;12.10;78.30;;;;;;5014546;28;20029;-72
2023/05/20 00:35:44;;;;;;;7.30;4.70;;;12.10;78.30;;;;;;5014289;28;20102;-74
2023/05/20 00:38:10;;;;;;;8.10;4.72;;;12.10;78.40;;;;;;5014393;28;20109;-73
2023/05/20 00:40:35;;;;;;;8.23;4.97;;;12.10;78.50;;;;;;5013464;28;20026;-73
2023/05/20 00:43:01;;;;;;;10.25;5.38;;;12.10;78.60;;;;;;5014355;28;20022;-72
2023/05/20 00:45:27;;;;;;;9.02;5.10;;;12.10;78.40;;;;;;5014420;28;20386;-73
2023/05/20 00:47:56;;;;;;;8.52;5.00;;;12.10;78.50;;;;;;5014110;28;20054;-72
2023/05/20 00:50:21;;;;;;;8.02;4.93;;;12.10;78.50;;;;;;5013205;28;20390;-73
2023/05/20 00:52:50;;;;;;;8.43;5.38;;;12.10;78.40;;;;;;5014248;28;20026;-73
2023/05/20 00:55:16;;;;;;;9.68;4.90;;;12.10;78.50;;;;;;5014035;28;20041;-73
2023/05/20 00:57:41;;;;;;;9.02;5.05;;;12.10;78.60;;;;;;5014127;28;20360;-72
2023/05/20 01:00:09;;;;;;;6.57;5.20;;;12.10;78.50;;;;;;5014037;28;20497;-73
2023/05/20 01:02:35;;;;;;;8.82;5.30;;;12.10;78.50;;;;;;5014027;28;20112;-73
2023/05/20 01:05:00;;;;;;;8.38;5.30;;;12.10;78.60;;;;;;5013838;28;20054;-73
2023/05/20 01:07:26;;;;;;;8.25;5.43;;;12.10;78.60;;;;;;5013525;28;20022;-72
2023/05/20 01:09:53;;;;;;;10.38;5.72;;;12.10;78.40;;;;;;5013847;28;20587;-73
2023/05/20 01:12:52;;;;;;;8.73;5.38;;;12.10;78.50;;;;;;5013556;28;20037;-73
2023/05/20 01:15:21;;;;;;;8.13;5.78;;;12.10;78.40;;;;;;5013657;28;20069;-72
2023/05/20 01:17:51;;;;;;;10.00;5.75;;;12.10;78.30;;;;;;5013544;28;20426;-73
2023/05/20 01:20:19;;;;;;;10.73;6.60;;;12.00;78.20;;;;;;5013538;28;20080;-72
2023/05/20 01:22:52;;;;;;;11.15;6.05;;;12.00;78.30;;;;;;5013552;28;20080;-73
2023/05/20 01:25:18;;;;;;;11.60;6.22;;;12.00;78.40;;;;;;5013649;28;20030;-73
2023/05/20 01:27:43;;;;;;;10.50;6.60;;;12.00;78.40;;;;;;5013412;28;20030;-73
2023/05/20 01:30:10;;;;;;;9.75;6.28;;;12.00;78.30;;;;;;5013438;28;20474;-73
2023/05/20 01:32:41;;;;;;;8.93;6.10;;;12.00;78.30;;;;;;4995974;28;20445;-73
2023/05/20 01:35:08;;;;;;;11.55;6.68;;;12.00;78.30;;;;;;5013363;28;20474;-72
2023/05/20 01:37:37;;;;;;;10.93;5.75;;;12.00;78.30;;;;;;5029490;28;20088;-73
2023/05/20 01:40:05;;;;;;;10.27;6.68;;;12.00;78.40;;;;;;5032572;28;20040;-73
2023/05/20 01:42:32;;;;;;;8.13;6.20;;;11.90;78.40;;;;;;5032728;28;20025;-73
2023/05/20 01:44:58;;;;;;;11.18;5.85;;;11.90;78.60;;;;;;5032818;28;20521;-73
2023/05/20 01:47:24;;;;;;;12.85;8.00;;;11.90;78.80;;;;;;5032660;28;20049;-72
2023/05/20 01:49:52;;;;;;;12.25;6.88;;;11.90;79.00;;;;;;5031587;28;20466;-72
2023/05/20 01:52:19;;;;;;;11.15;6.82;;;11.90;79.10;;;;;;5035862;28;20030;-73
2023/05/20 01:54:49;;;;;;;11.07;7.30;;;11.90;79.30;;;;;;5039543;28;20021;-73
2023/05/20 01:57:21;;;;;;;10.25;7.25;;;11.90;79.60;;;;;;5039512;28;20100;-73
2023/05/20 01:59:47;;;;;;;8.63;6.90;;;11.80;79.60;;;;;;5039493;28;20021;-73
2023/05/20 02:02:13;;;;;;;11.23;7.13;;;11.90;79.50;;;;;;5039453;28;20037;-73
2023/05/20 02:04:41;;;;;;;12.57;7.90;;;11.80;79.60;;;;;;5039769;28;20025;-73
2023/05/20 02:07:06;;;;;;;11.75;7.13;;;11.80;79.50;;;;;;5039245;28;20028;-73
2023/05/20 02:09:32;;;;;;;11.02;7.70;;;11.80;79.40;;;;;;5039418;28;20033;-73
2023/05/20 02:11:58;;;;;;;9.75;6.97;;;11.80;78.80;;;;;;5039374;28;20048;-72
2023/05/20 02:14:23;;;;;;;12.20;7.93;;;11.80;78.90;;;;;;5039173;28;20053;-73
2023/05/20 02:16:49;;;;;;;11.52;7.32;;;11.70;78.70;;;;;;5039155;28;20470;-72
2023/05/20 02:19:22;;;;;;;12.57;7.00;;;11.80;78.70;;;;;;5039492;28;20040;-73
2023/05/20 02:21:48;;;;;;;9.80;7.13;;;11.80;78.80;;;;;;5039252;28;20142;-73
2023/05/20 02:24:13;;;;;;;13.65;8.50;;;11.80;78.70;;;;;;5039247;28;20497;-73
2023/05/20 02:26:39;;;;;;;15.68;8.77;;;11.80;78.40;;;;;;5039138;28;20026;-73
2023/05/20 02:29:05;;;;;;;13.35;8.40;;;11.80;78.40;;;;;;5038010;28;20033;-73
2023/05/20 02:31:30;;;;;;;14.23;7.38;;;11.70;78.60;;;;;;5039316;28;20531;-74
2023/05/20 02:33:56;;;;;;;11.40;7.40;;;11.70;78.80;;;;;;5039182;28;20025;-73
2023/05/20 02:36:21;;;;;;;14.40;8.55;;;11.70;79.00;;;;;;5039179;28;20463;-73
2023/05/20 02:38:47;;;;;;;12.00;7.38;;;11.70;79.10;;;;;;5039097;28;20021;-73
2023/05/20 02:41:13;;;;;;;10.07;7.15;;;11.70;79.10;;;;;;5039098;28;20378;-73
2023/05/20 02:43:39;;;;;;;11.75;8.30;;;11.70;78.80;;;;;;5038919;28;20414;-73
2023/05/20 02:46:05;;;;;;;12.77;7.50;;;11.70;78.50;;;;;;5039113;28;20475;-72
2023/05/20 02:48:31;;;;;;;11.88;7.45;;;11.70;78.60;;;;;;5038829;28;20068;-73
2023/05/20 02:50:58;;;;;;;12.07;8.75;;;11.60;78.30;;;;;;5038781;28;20029;-74
2023/05/20 02:53:23;;;;;;;13.30;7.60;;;11.70;78.30;;;;;;5039096;28;20390;-73
2023/05/20 02:55:49;;;;;;;14.68;7.68;;;11.70;78.40;;;;;;5039028;28;20029;-73
2023/05/20 02:58:16;;;;;;;12.65;7.18;;;11.60;78.20;;;;;;5039043;28;20025;-73
2023/05/20 03:00:41;;;;;;;11.55;7.20;;;11.60;78.20;;;;;;5039034;28;20513;-72
2023/05/20 03:03:08;;;;;;;11.75;7.05;;;11.60;78.30;;;;;;5036969;28;20068;-72
2023/05/20 03:05:37;;;;;;;11.98;6.93;;;11.60;78.30;;;;;;5035719;28;20469;-72
2023/05/20 03:08:08;;;;;;;11.10;6.97;;;11.60;78.10;;;;;;5035771;28;20040;-72
2023/05/20 03:10:35;;;;;;;8.48;6.13;;;11.60;77.80;;;;;;5035838;28;20045;-72
2023/05/20 03:13:00;;;;;;;11.85;7.47;;;11.60;78.00;;;;;;5035746;28;20048;-72
2023/05/20 03:15:26;;;;;;;15.10;8.13;;;11.60;78.20;;;;;;5035654;28;20474;-72
2023/05/20 03:17:51;;;;;;;12.43;7.57;;;11.50;78.70;;;;;;5034301;28;20032;-72
2023/05/20 03:20:17;;;;;;;12.30;6.75;;;11.40;79.10;;;;;;5035554;28;20044;-72
2023/05/20 03:22:43;;;;;;;13.18;7.43;;;11.40;79.10;;;;;;5035674;28;20034;-73
2023/05/20 03:25:08;;;;;;;10.93;6.93;;;11.50;79.30;;;;;;5035489;28;20056;-72
2023/05/20 03:27:35;;;;;;;9.15;6.50;;;11.60;79.30;;;;;;5035434;28;20075;-72
2023/05/20 03:30:03;;;;;;;11.70;7.53;;;11.50;79.10;;;;;;5035599;28;20060;-72
2023/05/20 03:32:29;;;;;;;13.27;6.85;;;11.50;79.00;;;;;;5035366;28;20022;-72
2023/05/20 03:34:56;;;;;;;8.95;6.57;;;11.60;78.70;;;;;;5035455;28;20564;-72
2023/05/20 03:37:22;;;;;;;9.68;6.50;;;11.50;79.10;;;;;;5035306;28;20028;-72
2023/05/20 03:39:48;;;;;;;11.90;6.80;;;11.50;78.90;;;;;;5035101;28;20029;-72
2023/05/20 03:42:13;;;;;;;12.00;6.55;;;11.50;79.00;;;;;;5035248;28;20029;-73
2023/05/20 03:44:39;;;;;;;10.02;7.15;;;11.40;78.90;;;;;;5035034;28;20030;-72
2023/05/20 03:47:04;;;;;;;11.55;6.88;;;11.50;78.90;;;;;;5034832;28;20053;-74
2023/05/20 03:49:30;;;;;;;11.85;7.47;;;11.50;78.70;;;;;;5035035;28;20037;-72
2023/05/20 03:51:56;;;;;;;10.07;6.93;;;11.60;78.50;;;;;;5034833;28;20031;-72
2023/05/20 03:54:21;;;;;;;10.15;6.72;;;11.50;78.60;;;;;;5034874;28;20108;-73
2023/05/20 03:56:48;;;;;;;14.05;6.97;;;11.50;78.80;;;;;;5034870;28;20029;-72
2023/05/20 03:59:13;;;;;;;9.23;6.63;;;11.50;78.70;;;;;;5034838;28;20099;-73
2023/05/20 04:01:39;;;;;;;12.02;7.13;;;11.50;78.90;;;;;;5034858;28;20060;-71
2023/05/20 04:04:05;;;;;;;14.35;7.75;;;11.50;79.00;;;;;;5034564;28;20026;-72
2023/05/20 04:06:32;;;;;;;15.15;7.75;;;11.50;79.10;;;;;;5034769;28;20061;-72
2023/05/20 04:08:57;;;;;;;13.82;7.22;;;11.50;78.90;;;;;;5034621;28;20044;-72
2023/05/20 04:11:23;;;;;;;13.85;7.10;;;11.50;78.80;;;;;;5034644;28;20450;-72
2023/05/20 04:13:48;;;;;;;10.73;6.75;;;11.50;78.70;;;;;;5034517;28;20029;-71
2023/05/20 04:16:14;;;;;;;12.93;7.50;;;11.50;78.90;;;;;;5034523;28;20032;-71
2023/05/20 04:18:40;;;;;;;8.30;6.05;;;11.50;79.10;;;;;;5034490;28;20104;-71
2023/05/20 04:21:06;;;;;;;12.55;7.45;;;11.40;79.40;;;;;;5034324;28;20030;-73
2023/05/20 04:23:32;;;;;;;15.90;8.07;;;11.40;79.50;;;;;;5034526;28;20367;-71
2023/05/20 04:26:01;;;;;;;11.88;7.40;;;11.50;79.30;;;;;;5034289;28;20040;-72
2023/05/20 04:28:27;;;;;;;12.02;6.88;;;11.50;79.50;;;;;;5032834;28;20078;-72
2023/05/20 04:31:01;;;;;;;18.88;8.77;;;11.50;79.30;;;;;;5034245;28;20076;-72
2023/05/20 04:33:27;;;;;;;10.35;6.82;;;11.60;79.20;;;;;;5032920;28;20364;-72
2023/05/20 04:35:52;;;;;;;10.98;7.82;;;11.60;78.90;;;;;;5034006;28;20044;-72
2023/05/20 04:38:18;;;;;;;16.00;8.18;;;11.60;79.00;;;;;;5033938;28;20017;-72
2023/05/20 04:40:43;;;;;;;12.82;8.45;;;11.50;79.40;;;;;;5033638;28;20524;-72
2023/05/20 04:43:09;;;;;;;13.88;7.88;;;11.40;79.70;;;;;;5033737;28;20056;-73
2023/05/20 04:45:35;;;;;;;11.13;7.28;;;11.40;79.70;;;;;;5033875;28;20053;-72
2023/05/20 04:48:01;;;;;;;17.42;8.80;;;11.40;79.70;;;;;;5033429;28;20072;-72
2023/05/20 04:50:27;;;;;;;15.75;9.02;;;11.40;80.20;;;;;;5034073;28;20024;-73
2023/05/20 04:52:52;;;;;;;12.30;9.07;;;11.30;80.70;;;;;;5033828;28;20029;-73
2023/05/20 04:55:20;;;;;;;12.88;7.88;;;11.30;80.50;;;;;;5033643;28;20359;-72
2023/05/20 04:57:45;;;;;;;15.13;8.68;;;11.40;80.30;;;;;;5033744;28;20071;-73
2023/05/20 05:00:12;;;;;;;14.65;9.30;;;11.40;80.00;;;;;;5033571;28;20018;-73
2023/05/20 05:02:38;;;;;;;14.18;9.32;;;11.40;80.50;;;;;;5033552;28;20022;-73
2023/05/20 05:05:04;;;;;;;10.05;7.82;;;11.30;80.80;;;;;;5033407;28;20111;-73
2023/05/20 05:07:30;;;;;;;10.88;7.38;;;11.40;80.80;;;;;;5032980;28;20498;-73
2023/05/20 05:09:56;;;;;;;20.95;10.10;;;11.50;80.70;;;;;;5033279;28;20018;-73
2023/05/20 05:12:21;;;;;;;16.77;8.63;;;11.50;80.30;;;;;;5033345;28;20044;-73
2023/05/20 05:14:47;;;;;;;10.15;7.80;;;11.50;80.20;;;;;;5033168;28;20021;-73
2023/05/20 05:17:12;;;;;;;8.75;6.90;;;11.50;80.20;;;;;;5033287;28;20109;-72
2023/05/20 05:19:38;;;;;;;13.55;8.38;;;11.60;80.20;;;;;;5033276;28;20026;-73
2023/05/20 05:22:04;;;;;;;14.13;8.93;;;11.70;80.30;;;;;;5033272;28;20076;-72
2023/05/20 05:24:29;;;;;;;12.50;7.80;;;11.70;80.10;;;;;;5033095;28;20087;-73
2023/05/20 05:26:55;;;;;;;9.77;7.32;;;11.60;80.20;;;;;;5032599;28;20478;-73
2023/05/20 05:29:21;;;;;;;11.82;8.40;;;11.70;80.20;;;;;;5033465;28;20029;-73
2023/05/20 05:31:46;;;;;;;17.52;10.45;;;11.70;80.10;;;;;;5032896;28;20030;-73
2023/05/20 05:34:12;;;;;;;18.23;9.93;;;11.70;79.90;;;;;;5032623;28;20040;-72
2023/05/20 05:36:39;;;;;;;14.48;10.02;;;11.70;80.20;;;;;;5032969;28;20018;-72
2023/05/20 05:39:05;;;;;;;16.42;9.52;;;11.70;80.40;;;;;;5032990;28;20083;-72
2023/05/20 05:41:30;;;;;;;11.85;7.88;;;11.70;79.90;;;;;;5032953;28;20096;-72
2023/05/20 05:43:57;;;;;;;15.93;9.10;;;11.70;81.00;;;;;;5031413;28;20474;-72
2023/05/20 05:46:22;;;;;;;11.07;7.50;;;11.70;80.60;;;;;;5031467;28;20025;-73
2023/05/20 05:48:49;;;;;;;14.75;8.63;;;11.80;80.20;;;;;;5031495;28;20063;-73
2023/05/20 05:51:16;;;;;;;12.02;9.20;;;11.80;80.20;;;;;;5033054;28;20128;-73
2023/05/20 05:53:42;;;;;;;15.30;8.30;;;11.80;80.30;;;;;;5032793;28;20106;-73
2023/05/20 05:56:08;;;;;;;11.60;9.18;;;11.90;80.30;;;;;;5032609;28;20444;-72
2023/05/20 05:58:34;;;;;;;13.13;8.88;;;11.90;80.20;;;;;;5032697;28;20026;-73
2023/05/20 06:00:59;;;;;;;13.18;9.05;;;12.00;80.00;;;;;;5032881;28;20052;-73
2023/05/20 06:03:25;;;;;;;9.40;7.07;;;12.00;80.30;;;;;;5032772;28;20063;-73
2023/05/20 06:05:51;;;;;;;13.75;8.10;;;12.10;80.40;;;;;;5032587;28;20052;-72
2023/05/20 06:08:17;;;;;;;13.95;8.70;;;12.20;79.90;;;;;;5031248;28;20083;-73
2023/05/20 06:10:48;;;;;;;8.60;7.38;;;12.10;79.80;;;;;;5032749;28;20029;-72
2023/05/20 06:13:13;;;;;;;12.40;7.95;;;12.20;80.10;;;;;;5032687;28;20034;-73
2023/05/20 06:15:39;;;;;;;11.07;7.28;;;12.40;79.90;;;;;;5032313;28;20131;-73
2023/05/20 06:18:05;;;;;;;10.45;8.00;;;12.50;79.50;;;;;;5032444;28;20026;-73
2023/05/20 06:20:30;;;;;;;9.38;7.15;;;12.60;78.30;;;;;;5032405;28;20387;-73
2023/05/20 06:22:56;;;;;;;10.23;7.30;;;12.60;78.30;;;;;;5032459;28;20052;-72
2023/05/20 06:25:22;;;;;;;11.60;8.30;;;12.80;78.10;;;;;;5032585;28;20489;-73
2023/05/20 06:27:48;;;;;;;12.18;7.72;;;12.80;77.90;;;;;;5032562;28;20037;-72
2023/05/20 06:30:13;;;;;;;11.10;7.80;;;12.80;78.40;;;;;;5032524;28;20038;-73
2023/05/20 06:32:39;;;;;;;12.02;7.38;;;12.70;78.30;;;;;;5032381;28;20061;-72
2023/05/20 06:35:05;;;;;;;11.60;7.95;;;12.60;79.10;;;;;;5032475;28;20472;-73
2023/05/20 06:37:31;;;;;;;12.30;8.10;;;12.50;79.40;;;;;;5032291;28;20017;-72
2023/05/20 06:39:56;;;;;;;11.27;8.00;;;12.50;79.70;;;;;;5035284;28;20033;-72
2023/05/20 06:42:22;;;;;;;7.60;6.53;;;12.40;79.90;;;;;;5036047;28;20025;-72
2023/05/20 06:44:47;;;;;;;9.20;6.57;;;12.50;80.10;;;;;;5035978;28;20025;-74
2023/05/20 06:47:15;;;;;;;9.52;6.18;;;12.60;79.80;;;;;;5035790;28;20052;-72
2023/05/20 06:49:44;;;;;;;8.52;6.57;;;12.70;79.70;;;;;;5035888;28;20426;-71
2023/05/20 06:52:10;;;;;;;11.98;7.30;;;12.80;79.30;;;;;;5035887;28;20481;-71
2023/05/20 06:54:40;;;;;;;9.48;6.43;;;12.80;78.90;;;;;;5034464;28;20045;-72
2023/05/20 06:57:06;;;;;;;11.45;7.28;;;12.90;78.80;;;;;;5035443;28;20136;-72
2023/05/20 06:59:32;;;;;;;10.73;7.55;;;13.00;78.50;;;;;;5035575;28;20029;-73
2023/05/20 07:01:57;;;;;;;9.27;7.65;;;12.90;78.70;;;;;;5035590;28;20021;-73
2023/05/20 07:04:23;;;;;;;8.65;6.57;;;12.90;78.50;;;;;;5035570;28;20037;-72
2023/05/20 07:06:48;;;;;;;10.80;7.95;;;12.80;78.90;;;;;;5035572;28;20032;-72
2023/05/20 07:09:14;;;;;;;12.00;7.68;;;12.90;79.20;;;;;;5035445;28;20029;-73
2023/05/20 07:11:39;;;;;;;11.63;7.78;;;13.00;79.00;;;;;;5035370;28;20057;-73
2023/05/20 07:14:05;;;;;;;9.93;7.78;;;13.10;78.80;;;;;;5033926;28;20021;-71
2023/05/20 07:16:33;;;;;;;10.63;7.85;;;13.10;78.40;;;;;;5035145;28;20021;-72
2023/05/20 07:18:59;;;;;;;10.20;7.55;;;13.10;78.20;;;;;;5035345;28;20028;-72
2023/05/20 07:21:25;;;;;;;8.90;7.00;;;13.20;78.30;;;;;;5035181;28;20021;-72
2023/05/20 07:23:50;;;;;;;14.52;8.68;;;13.20;78.40;;;;;;5035126;28;20544;-72
2023/05/20 07:26:16;;;;;;;11.20;7.70;;;13.30;78.10;;;;;;5035107;28;20033;-71
2023/05/20 07:28:42;;;;;;;10.52;7.85;;;13.30;77.90;;;;;;5034880;28;20397;-72
2023/05/20 07:31:08;;;;;;;12.07;7.32;;;13.40;77.80;;;;;;5034979;28;20049;-73
2023/05/20 07:33:33;;;;;;;15.98;8.40;;;13.50;77.70;;;;;;5034984;28;20067;-73
2023/05/20 07:35:59;;;;;;;11.25;6.28;;;13.70;79.80;;;;;;5034858;28;20021;-70
2023/05/20 07:38:25;;;;;;;9.43;5.88;;;14.10;78.10;;;;;;5035088;28;20144;-68
2023/05/20 07:40:50;;;;;;;9.18;6.80;;;14.50;75.70;;;;;;5033772;28;20413;-70
2023/05/20 07:43:16;;;;;;;12.60;6.20;;;14.80;73.70;;;;;;5034598;28;20108;-71
2023/05/20 07:45:41;;;;;;;10.93;6.82;;;15.20;71.40;;;;;;5034697;28;20033;-71
2023/05/20 07:48:11;;;;;;;9.20;6.50;;;15.30;70.40;;;;;;5034514;28;20125;-72
2023/05/20 07:50:38;;;;;;;10.75;6.25;;;15.50;69.30;;;;;;5034198;28;20022;-71
2023/05/20 07:53:03;;;;;;;7.65;5.78;;;15.50;68.30;;;;;;5034896;28;20033;-71
2023/05/20 07:55:30;;;;;;;8.82;6.25;;;15.60;68.30;;;;;;5035080;28;20028;-71
2023/05/20 07:57:55;;;;;;;14.65;7.18;;;15.70;67.60;;;;;;5034533;28;20025;-72
2023/05/20 08:00:21;;;;;;;7.63;6.10;;;15.70;67.50;;;;;;5034424;28;20083;-72
2023/05/20 08:02:47;;;;;;;8.15;6.07;;;15.70;67.70;;;;;;5038589;28;20378;-72
2023/05/20 08:05:13;;;;;;;8.80;6.57;;;15.60;67.70;;;;;;5034528;28;20025;-72
2023/05/20 08:07:38;;;;;;;9.70;6.50;;;15.50;67.40;;;;;;5034622;28;20117;-72
2023/05/20 08:10:04;;;;;;;11.88;7.60;;;15.50;68.10;;;;;;5034239;28;20101;-72
2023/05/20 08:12:30;;;;;;;9.82;6.47;;;15.50;68.30;;;;;;5034500;28;20025;-73
2023/05/20 08:14:55;;;;;;;7.82;6.75;;;15.60;68.20;;;;;;5034423;28;20029;-72
2023/05/20 08:17:21;;;;;;;8.15;6.03;;;15.60;68.50;;;;;;5033876;28;20032;-72
2023/05/20 08:19:46;;;;;;;10.43;6.75;;;15.70;68.30;;;;;;5034180;28;20059;-72
2023/05/20 08:22:12;;;;;;;10.65;7.10;;;15.80;67.70;;;;;;5034186;28;20021;-72
2023/05/20 08:24:37;;;;;;;13.80;7.10;;;16.00;67.00;;;;;;5034009;28;20449;-72
2023/05/20 08:27:04;;;;;;;7.85;6.20;;;16.00;67.10;;;;;;5033768;28;20036;-71
2023/05/20 08:29:29;;;;;;;9.27;6.28;;;16.10;67.10;;;;;;5033893;28;20021;-71
2023/05/20 08:31:55;;;;;;;7.95;6.78;;;16.30;66.40;;;;;;5033721;28;20135;-71
2023/05/20 08:34:21;;;;;;;10.70;7.45;;;16.20;65.80;;;;;;5033956;28;20033;-71
2023/05/20 08:36:46;;;;;;;9.75;7.22;;;16.20;65.20;;;;;;5033745;28;20159;-71
2023/05/20 08:39:12;;;;;;;9.40;7.07;;;16.20;66.40;;;;;;5033947;28;20029;-71
2023/05/20 08:41:38;;;;;;;8.82;7.10;;;16.30;66.40;;;;;;5033450;28;20029;-71
2023/05/20 08:44:04;;;;;;;9.30;6.30;;;16.60;65.70;;;;;;5033662;28;20030;-71
2023/05/20 08:46:33;;;;;;;9.15;7.00;;;16.80;64.80;;;;;;5033578;28;20029;-71
2023/05/20 08:48:59;;;;;;;9.07;6.22;;;17.10;63.60;;;;;;5033753;28;20037;-71
2023/05/20 08:51:26;;;;;;;7.95;6.40;;;17.30;63.00;;;;;;5033869;28;20108;-71
2023/05/20 08:53:52;;;;;;;9.80;6.75;;;17.50;62.70;;;;;;5033335;28;20029;-71
2023/05/20 08:56:18;;;;;;;7.35;5.57;;;17.70;61.00;;;;;;5033329;28;20029;-70
2023/05/20 08:58:45;;;;;;;6.82;5.15;;;17.80;60.30;;;;;;5033395;28;20040;-71
2023/05/20 09:01:11;;;;;;;9.38;5.72;;;18.00;60.20;;;;;;5032467;28;20112;-72
2023/05/20 09:03:37;;;;;;;8.68;6.38;;;18.20;59.50;;;;;;5033342;28;20104;-73
2023/05/20 09:06:07;;;;;;;7.20;4.93;;;18.40;59.70;;;;;;5033147;28;20018;-71
2023/05/20 09:08:33;;;;;;;8.55;5.60;;;18.70;59.20;;;;;;5033099;28;20041;-71
2023/05/20 09:10:59;;;;;;;9.43;7.15;;;18.70;57.10;;;;;;5033131;28;20037;-73
2023/05/20 09:13:26;;;;;;;10.13;6.32;;;18.20;57.50;;;;;;5031716;28;20588;-71
2023/05/20 09:15:52;;;;;;;9.02;6.30;;;18.00;58.50;;;;;;5033052;28;20140;-72
2023/05/20 09:18:18;;;;;;;8.18;6.22;;;18.00;58.50;;;;;;5031694;28;20116;-72
2023/05/20 09:20:46;;;;;;;9.07;6.40;;;18.00;58.80;;;;;;5032979;28;20041;-72
2023/05/20 09:23:12;;;;;;;9.45;6.60;;;18.00;59.20;;;;;;5032708;28;20159;-72
2023/05/20 09:25:38;;;;;;;10.07;6.25;;;18.10;59.20;;;;;;5033070;28;20064;-72
2023/05/20 09:28:06;;;;;;;7.97;6.25;;;18.40;59.00;;;;;;5032939;28;20041;-72
2023/05/20 09:30:32;;;;;;;7.22;5.43;;;18.50;58.00;;;;;;5033012;28;20022;-73
2023/05/20 09:32:59;;;;;;;6.78;5.63;;;18.70;57.60;;;;;;5032883;28;20100;-73
2023/05/20 09:35:26;;;;;;;9.30;7.13;;;18.70;57.30;;;;;;5032731;28;20052;-71
2023/05/20 09:37:55;;;;;;;11.02;6.38;;;18.60;56.70;;;;;;5032662;28;20060;-71
2023/05/20 09:40:24;;;;;;;7.88;6.53;;;18.60;57.60;;;;;;5032569;28;20049;-72
2023/05/20 09:42:53;;;;;;;8.52;6.85;;;18.50;57.00;;;;;;5032960;28;20029;-71
2023/05/20 09:45:21;;;;;;;7.63;5.88;;;18.20;57.50;;;;;;5032452;28;20049;-71
2023/05/20 09:47:47;;;;;;;7.28;5.43;;;18.00;58.60;;;;;;5032389;28;20046;-71
2023/05/20 09:50:14;;;;;;;10.18;6.60;;;18.30;58.70;;;;;;5032414;28;20030;-72
2023/05/20 09:52:40;;;;;;;9.43;7.18;;;18.60;58.30;;;;;;5032518;28;20025;-71
2023/05/20 09:55:09;;;;;;;7.07;6.35;;;18.50;58.00;;;;;;5032312;28;20026;-71
2023/05/20 09:57:35;;;;;;;8.85;6.47;;;18.50;57.80;;;;;;5031336;28;20025;-71
2023/05/20 10:00:04;;;;;;;8.10;6.30;;;18.70;57.50;;;;;;5032603;28;20038;-71
2023/05/20 10:02:29;;;;;;;10.30;7.32;;;18.80;57.00;;;;;;5032404;28;20044;-71
2023/05/20 10:04:58;;;;;;;9.35;6.50;;;18.70;56.60;;;;;;5032356;28;20026;-71
2023/05/20 10:07:46;;;;;;;13.15;7.03;;;18.90;57.20;;;;;;5032311;28;20048;-72
2023/05/20 10:10:47;;;;;;;9.48;7.13;;;19.00;55.80;;;;;;5031232;28;20044;-71
2023/05/20 10:13:18;;;;;;;10.45;6.88;;;18.80;56.80;;;;;;5034389;28;20032;-72
2023/05/20 10:16:08;;;;;;;9.55;7.00;;;18.60;57.70;;;;;;5036404;28;20083;-72
2023/05/20 10:18:45;;;;;;;10.07;6.68;;;18.80;57.10;;;;;;5036503;28;20030;-72
2023/05/20 10:21:15;;;;;;;8.45;6.50;;;19.20;56.10;;;;;;5036406;28;20096;-71
2023/05/20 10:23:41;;;;;;;8.43;6.53;;;19.70;55.70;;;;;;5035121;28;20025;-72
2023/05/20 10:26:07;;;;;;;10.40;7.07;;;20.10;54.20;;;;;;5036380;28;20128;-72
2023/05/20 10:28:35;;;;;;;10.27;6.10;;;20.00;53.40;;;;;;5036293;28;20102;-72
2023/05/20 10:31:01;;;;;;;9.95;6.63;;;20.00;53.20;;;;;;5034372;28;20037;-71
2023/05/20 10:33:27;;;;;;;8.48;6.60;;;19.70;53.50;;;;;;5035787;28;20025;-72
2023/05/20 10:35:54;;;;;;;6.60;5.90;;;19.70;53.90;;;;;;5036508;28;20366;-73
2023/05/20 10:38:20;;;;;;;7.45;6.40;;;19.80;54.90;;;;;;5035621;28;20052;-72
2023/05/20 10:40:46;;;;;;;12.75;6.47;;;20.00;53.60;;;;;;5036094;28;20486;-72
2023/05/20 10:43:32;;;;;;;6.97;5.18;;;20.10;53.20;;;;;;5035886;28;20033;-71
2023/05/20 10:45:58;;;;;;;;;;;20.30;53.30;;;;;;5035666;28;20036;-72
2023/05/20 10:48:31;;;;;;;9.25;6.30;;;20.40;52.80;;;;;;5035581;28;20015;-72
2023/05/20 10:51:05;;;;;;;8.43;6.82;;;20.40;52.30;;;;;;5035793;28;20026;-72
2023/05/20 10:53:41;;;;;;;6.80;6.10;;;20.40;52.20;;;;;;5036053;28;20117;-71
2023/05/20 10:56:17;;;;;;;8.18;6.75;;;20.40;52.40;;;;;;5035846;28;20029;-72
2023/05/20 10:58:44;;;;;;;11.45;6.45;;;20.10;52.80;;;;;;5035875;28;20381;-72
2023/05/20 11:01:10;;;;;;;7.78;6.70;;;20.00;53.50;;;;;;5035733;28;20021;-72
2023/05/20 11:03:36;;;;;;;8.35;6.60;;;19.80;54.00;;;;;;5034386;28;20219;-73
2023/05/20 11:06:09;;;;;;;7.85;6.72;;;19.40;54.90;;;;;;5035956;28;20025;-72
2023/05/20 11:08:35;;;;;;;7.45;6.32;;;19.40;55.20;;;;;;5035575;28;20052;-72
2023/05/20 11:11:00;;;;;;;11.20;5.97;;;19.60;55.50;;;;;;5035681;28;20482;-71
2023/05/20 11:13:26;;;;;;;7.50;6.10;;;20.10;54.40;;;;;;5034980;28;20664;-72
2023/05/20 11:15:52;;;;;;;8.02;5.28;;;20.60;53.00;;;;;;5034365;28;20486;-72
2023/05/20 11:18:17;;;;;;;8.70;6.10;;;20.80;51.90;;;;;;5036149;28;20026;-72
2023/05/20 11:20:45;;;;;;;9.45;6.55;;;21.20;51.10;;;;;;5034261;28;20033;-72
2023/05/20 11:23:12;;;;;;;7.90;6.35;;;21.50;50.20;;;;;;5035450;28;20080;-72
2023/05/20 11:25:38;;;;;;;10.88;6.53;;;22.00;48.70;;;;;;5034276;28;20021;-73
2023/05/20 11:28:07;;;;;;;9.43;6.10;;;21.90;49.50;;;;;;5034316;28;20060;-72
2023/05/20 11:30:32;;;;;;;8.43;6.28;;;21.80;48.50;;;;;;5033371;28;20484;-72
2023/05/20 11:32:59;;;;;;;8.65;5.30;;;22.00;48.30;;;;;;5034924;28;20037;-72
2023/05/20 11:35:28;;;;;;;7.97;5.43;;;21.80;49.00;;;;;;5034977;28;20156;-72
2023/05/20 11:38:02;;;;;;;7.47;6.05;;;22.00;48.90;;;;;;5034840;28;20033;-73
2023/05/20 11:40:29;;;;;;;9.93;5.90;;;22.10;48.10;;;;;;5035101;28;20017;-73
2023/05/20 11:42:57;;;;;;;7.68;5.40;;;22.10;47.90;;;;;;5034875;28;20119;-73
2023/05/20 11:45:23;;;;;;;7.15;5.32;;;22.40;47.10;;;;;;5034759;28;20462;-73
2023/05/20 11:48:05;;;;;;;6.38;5.40;;;22.20;47.60;;;;;;5034312;28;20053;-72
2023/05/20 11:50:41;;;;;;;6.63;4.90;;;22.10;47.70;;;;;;5034552;28;20027;-72
2023/05/20 11:53:09;;;;;;;6.10;5.50;;;22.30;47.90;;;;;;5034937;28;20026;-72
2023/05/20 11:55:54;;;;;;;7.18;5.95;;;22.50;46.80;;;;;;5034670;28;20033;-72
2023/05/20 11:58:25;;;;;;;7.33;5.50;;;22.30;47.10;;;;;;5034251;28;20021;-72
2023/05/20 12:00:51;;;;;;;7.75;5.75;;;22.10;48.10;;;;;;5033056;28;20381;-73
2023/05/20 12:03:17;;;;;;;7.38;6.22;;;22.10;47.90;;;;;;5034218;28;20032;-72
2023/05/20 12:05:43;;;;;;;7.55;4.75;;;22.10;47.80;;;;;;5033060;28;20071;-72
2023/05/20 12:08:09;;;;;;;9.98;5.95;;;22.00;47.70;;;;;;5034351;28;20034;-73
2023/05/20 12:10:37;;;;;;;8.88;6.05;;;22.10;47.40;;;;;;5034706;28;20025;-72
2023/05/20 12:13:04;;;;;;;5.72;5.18;;;21.90;47.90;;;;;;5034688;28;20430;-72
2023/05/20 12:15:29;;;;;;;7.30;5.80;;;22.10;48.00;;;;;;5034266;28;20036;-73
2023/05/20 12:17:55;;;;;;;7.47;5.60;;;22.00;48.40;;;;;;5034402;28;20026;-72
2023/05/20 12:20:22;;;;;;;6.43;5.18;;;22.10;48.90;;;;;;5034113;28;20034;-72
2023/05/20 12:22:48;;;;;;;6.43;5.25;;;22.30;48.10;;;;;;5033840;28;20095;-72
2023/05/20 12:25:18;;;;;;;7.57;5.32;;;22.10;47.70;;;;;;5032520;28;20124;-72
2023/05/20 12:27:46;;;;;;;7.57;5.53;;;22.00;48.40;;;;;;5034008;28;20041;-72
2023/05/20 12:30:18;;;;;;;6.03;4.80;;;22.30;48.50;;;;;;5034103;28;20017;-72
2023/05/20 12:32:45;;;;;;;8.15;5.70;;;22.40;47.10;;;;;;5033785;28;20058;-72
2023/05/20 12:35:11;;;;;;;10.73;5.00;;;22.40;47.00;;;;;;5032675;28;20104;-72
2023/05/20 12:37:38;;;;;;;9.32;5.10;;;22.10;47.90;;;;;;5032479;28;20489;-73
2023/05/20 12:40:07;;;;;;;7.90;5.18;;;21.80;48.50;;;;;;5033817;28;20030;-72
2023/05/20 12:42:37;;;;;;;6.68;5.20;;;21.50;49.40;;;;;;5034071;28;20355;-73